Lumpkin, Georgia
Current Conditions -  °F | °C
As of 6:58 PM on Wednesday 22 Oct 2014 (Local Time) from KEUF Reporting Station
Clear Clear  
Wind Chill: 61°   Ceiling: Unl
Heat Index: 61°   Visibility: 10mi
Dew Point: 49°   Wind: 0mph
Humidity: 64%   Direction: NA
Pressure: 30.04"   Gusts: NA
Location:  32.05°N, 84.8°W
Report Text: KEUF 222258Z AUTO 00000KT 10SM CLR 16/09 A3004 RMK AO2 SLP172 T01610094 $
Loading
Personal Weather Stations






























Interactive Weather Map
Tropical Storm Tracking
New forecast layout! Learn more

10-Day Weather Forecast

Advertisements
Track Severe Weather on mobile